WSSS

Singapore Changi Airport

Airport
ICAO code
WSSS
IATA Code
SIN
Summary
ICAO Region
APAC
ICAO Territory
Location

Changi, East Region

Serving
Singapore
Elevation
22 ft
Coordinates
1° 21' 24" N , 103° 59' 21" E
KCC
Airport LOS
Parallel Runway Operation
Metar
Observation
WSSS 250030Z VRB07KT 8000 3000S -SHRA FEW012 FEW016CB SCT018TCU 25/23 Q1011 TEMPO TL0130 3000 TSRA
Station
Singapore / Changi Airport
Date/Time
2022-09-25 00:30:00
Wind speed
07 kts
Lowest cloud amount
few clouds
Temperature
25°C
Dew point
23°C
Humidity
88%
QNH
1011 hPa
Weather condition
n/a

The only international airport in Singapore.

Climatology

Tropical Rainforest climate (Köppen climate classification Af) - almost no distinct seasons, average daily temperature around 27°C throughout the year. Extensive cloud cover and heavy rainfall prevent temperatures from rising much over 33°C. The diurnal temperature change is between 2°C and 5°C which is greater than the annual temperature range of 2°C. Rainfall is heavy and is usually convectional and in the afternoon.

SKYbrary Partners:

Safety knowledge contributed by: